トロムソ の空港の天気 - METARとTAF

トロムソ空港 ( ENTC / TOS ) - ノルウェー トロムス県トロムソ
飛行場実況気象(Metar)
観測時間12/10 06:20 CET (12/10 05:20 UTC)
風向・風速静穏 0m/s
視程10km以上
天気現象
少しの雲 雲底高度 1680m
全天の4割程度の雲 雲底高度 3050m
気温-4℃
湿度93%
気圧1002hPa
METARENTC 100520Z 00000KT 9999 FEW055 SCT100 M04/M05 Q1002 RMK WIND 2600FT VRB02KT
過去の天気等 Google飛行場航空写真 Wunderground天気予報

過去48時間のMETAR

飛行場予報(TAF)
発表時間: -
10日1時 CET から 確率 40% で
視程4500m
天気現象弱い雪
全天を覆う雲 鉛直視程 430m
TAF ENTC 1000/1024 04008KT 9999 FEW015 BKN050
PROB40 1000/1012 4500 -SN VV014